Time;durP1;ratioP1;P1;durP2;ratioP2;P2;SDS_P1;SDS_P2;PMS_P1;PMS_P2;Temp;Humidity;BMP_temperature;BMP_pressure;BME280_temperature;BME280_humidity;BME280_pressure;Samples;Min_cycle;Max_cycle;Signal;HPM_P1;HPM_P2
2023/12/30 00:01:33;;;;;;;4.17;1.40;;;15.10;99.90;;;;;;5080384;28;20194;-90
2023/12/30 00:04:05;;;;;;;2.57;1.47;;;15.00;99.90;;;;;;5076062;28;20265;-90
2023/12/30 00:06:34;;;;;;;4.07;1.53;;;15.00;99.90;;;;;;5062142;28;20191;-90
2023/12/30 00:09:02;;;;;;;1.97;1.10;;;15.00;99.90;;;;;;5075624;28;20431;-90
2023/12/30 00:11:31;;;;;;;1.57;1.10;;;15.00;99.90;;;;;;5067079;27;20186;-89
2023/12/30 00:13:57;;;;;;;3.27;1.10;;;15.10;99.90;;;;;;5079991;28;20551;-89
2023/12/30 00:16:27;;;;;;;3.20;1.27;;;15.00;99.90;;;;;;5064134;28;20208;-89
2023/12/30 00:18:52;;;;;;;2.90;1.20;;;15.00;99.90;;;;;;5075641;28;20172;-89
2023/12/30 00:21:22;;;;;;;3.73;1.10;;;15.00;99.90;;;;;;5066552;28;20212;-89
2023/12/30 00:23:50;;;;;;;2.10;1.20;;;15.00;99.90;;;;;;5074103;28;20417;-89
2023/12/30 00:26:24;;;;;;;2.50;1.20;;;15.00;99.90;;;;;;5067656;28;20192;-89
2023/12/30 00:28:50;;;;;;;3.50;1.20;;;15.00;99.90;;;;;;5073360;28;20173;-89
2023/12/30 00:31:27;;;;;;;2.60;1.13;;;15.00;99.90;;;;;;5086935;28;20488;-89
2023/12/30 00:34:01;;;;;;;3.87;1.40;;;15.00;99.90;;;;;;5088427;28;20180;-89
2023/12/30 00:36:27;;;;;;;3.13;1.40;;;15.00;99.90;;;;;;5070728;28;20181;-89
2023/12/30 00:38:56;;;;;;;1.90;1.13;;;15.00;99.90;;;;;;5074523;28;20180;-89
2023/12/30 00:41:22;;;;;;;3.57;1.30;;;15.00;99.90;;;;;;5093403;28;20239;-89
2023/12/30 00:43:51;;;;;;;4.07;1.20;;;15.00;99.90;;;;;;5072358;28;20175;-89
2023/12/30 00:46:21;;;;;;;1.83;1.10;;;15.00;99.90;;;;;;5095630;28;20512;-89
2023/12/30 00:48:50;;;;;;;2.67;1.20;;;15.00;99.90;;;;;;5088521;28;20199;-89
2023/12/30 00:51:20;;;;;;;1.60;1.10;;;15.00;99.90;;;;;;5096374;28;20190;-89
2023/12/30 00:53:45;;;;;;;3.23;1.27;;;15.00;99.90;;;;;;5087200;28;20178;-88
2023/12/30 00:56:14;;;;;;;2.37;1.17;;;15.00;99.90;;;;;;5079728;28;20196;-89
2023/12/30 00:58:42;;;;;;;3.10;1.33;;;15.00;99.90;;;;;;5071651;28;20218;-89
2023/12/30 01:01:11;;;;;;;3.03;1.07;;;15.00;99.90;;;;;;5061345;28;20446;-89
2023/12/30 01:03:40;;;;;;;2.97;1.10;;;15.00;99.90;;;;;;5070911;28;20239;-89
2023/12/30 01:06:06;;;;;;;2.67;1.07;;;15.00;99.90;;;;;;5057494;28;20391;-89
2023/12/30 01:08:38;;;;;;;2.83;1.17;;;15.00;99.90;;;;;;5070619;28;20430;-89
2023/12/30 01:11:09;;;;;;;2.20;1.07;;;15.00;99.90;;;;;;5058032;28;20185;-89
2023/12/30 01:13:35;;;;;;;2.37;1.10;;;15.00;99.90;;;;;;5087234;28;20186;-89
2023/12/30 01:16:05;;;;;;;2.00;0.90;;;15.00;99.90;;;;;;5075569;28;20182;-89
2023/12/30 01:18:34;;;;;;;2.33;1.30;;;15.00;99.90;;;;;;5069539;28;20449;-89
2023/12/30 01:21:06;;;;;;;2.03;1.30;;;15.00;99.90;;;;;;5038570;28;20185;-90
2023/12/30 01:23:34;;;;;;;2.63;1.30;;;15.00;99.90;;;;;;5064181;28;20178;-89
2023/12/30 01:26:03;;;;;;;1.70;0.93;;;15.00;99.90;;;;;;5058002;28;20179;-89
2023/12/30 01:28:34;;;;;;;2.53;1.10;;;15.00;99.90;;;;;;5065411;28;20177;-89
2023/12/30 01:31:06;;;;;;;1.87;1.13;;;15.00;99.90;;;;;;5060736;28;20472;-89
2023/12/30 01:33:34;;;;;;;2.03;1.23;;;15.00;99.90;;;;;;5066243;28;20168;-89
2023/12/30 01:36:00;;;;;;;2.83;1.47;;;15.00;99.90;;;;;;5079668;28;20532;-89
2023/12/30 01:38:28;;;;;;;2.93;1.30;;;15.00;99.90;;;;;;5063400;28;20572;-89
2023/12/30 01:40:55;;;;;;;3.93;1.40;;;15.00;99.90;;;;;;5062907;28;20176;-89
2023/12/30 01:43:30;;;;;;;3.13;1.20;;;15.00;99.90;;;;;;5061136;28;20192;-89
2023/12/30 01:46:00;;;;;;;2.13;1.20;;;15.00;99.90;;;;;;5065696;28;20169;-89
2023/12/30 01:48:30;;;;;;;2.53;1.10;;;15.00;99.90;;;;;;5059298;28;20265;-89
2023/12/30 01:51:00;;;;;;;3.03;1.27;;;15.00;99.90;;;;;;5083094;28;20579;-89
2023/12/30 01:53:28;;;;;;;2.33;1.20;;;15.00;99.90;;;;;;5078100;28;20544;-89
2023/12/30 01:55:58;;;;;;;2.67;1.10;;;14.90;99.90;;;;;;5066481;28;20171;-89
2023/12/30 01:58:27;;;;;;;2.90;1.40;;;15.00;99.90;;;;;;5074230;28;20230;-89
2023/12/30 02:00:56;;;;;;;2.17;1.50;;;14.90;99.90;;;;;;5081632;28;20169;-89
2023/12/30 02:03:25;;;;;;;2.90;1.10;;;15.00;99.90;;;;;;5075223;28;20178;-89
2023/12/30 02:05:54;;;;;;;3.30;1.20;;;14.90;99.90;;;;;;5064544;28;20343;-89
2023/12/30 02:08:23;;;;;;;3.23;1.13;;;14.90;99.90;;;;;;5073852;28;20190;-89
2023/12/30 02:10:51;;;;;;;2.77;1.03;;;14.90;99.90;;;;;;5062599;28;20559;-89
2023/12/30 02:13:20;;;;;;;2.87;1.13;;;14.90;99.90;;;;;;5076273;28;20276;-89
2023/12/30 02:15:49;;;;;;;2.33;0.90;;;14.90;99.90;;;;;;5082331;28;20173;-89
2023/12/30 02:18:21;;;;;;;2.70;1.00;;;14.90;99.90;;;;;;5077893;28;20229;-89
2023/12/30 02:20:49;;;;;;;2.40;1.20;;;14.90;99.90;;;;;;5070766;28;20179;-89
2023/12/30 02:23:17;;;;;;;2.10;1.10;;;14.90;99.90;;;;;;5055180;28;20239;-89
2023/12/30 02:25:47;;;;;;;3.03;1.20;;;14.90;99.90;;;;;;5060014;28;20177;-89
2023/12/30 02:28:12;;;;;;;2.63;1.00;;;14.90;99.90;;;;;;5054973;28;20178;-89
2023/12/30 02:30:41;;;;;;;3.00;1.20;;;14.90;99.90;;;;;;5064414;28;20179;-89
2023/12/30 02:33:10;;;;;;;1.93;1.40;;;14.90;99.90;;;;;;5055403;28;20180;-89
2023/12/30 02:35:59;;;;;;;2.70;1.20;;;14.90;99.90;;;;;;5061738;28;20563;-89
2023/12/30 02:38:25;;;;;;;2.50;1.10;;;14.90;99.90;;;;;;5061071;28;20188;-89
2023/12/30 02:40:53;;;;;;;3.20;1.17;;;14.90;99.90;;;;;;5062108;28;20180;-89
2023/12/30 02:43:28;;;;;;;1.90;1.10;;;14.90;99.90;;;;;;5073576;28;20167;-89
2023/12/30 02:45:55;;;;;;;1.50;1.00;;;14.90;99.90;;;;;;5069540;28;20179;-89
2023/12/30 02:48:21;;;;;;;1.33;1.10;;;14.90;99.90;;;;;;5072559;28;20247;-89
2023/12/30 02:50:47;;;;;;;2.37;1.23;;;14.90;99.90;;;;;;5071425;28;20197;-89
2023/12/30 02:53:13;;;;;;;2.07;1.00;;;14.90;99.90;;;;;;5069089;28;20362;-90
2023/12/30 02:55:42;;;;;;;2.33;1.10;;;14.90;99.90;;;;;;5073627;28;20181;-89
2023/12/30 02:58:07;;;;;;;2.43;1.07;;;14.90;99.90;;;;;;5067916;28;20178;-89
2023/12/30 03:00:34;;;;;;;2.57;0.93;;;15.00;99.90;;;;;;5075676;28;20454;-89
2023/12/30 03:03:06;;;;;;;2.00;1.20;;;14.90;99.90;;;;;;5066297;28;20236;-90
2023/12/30 03:05:32;;;;;;;2.87;1.07;;;14.90;99.90;;;;;;5076977;28;20171;-90
2023/12/30 03:07:58;;;;;;;1.73;1.10;;;14.90;99.90;;;;;;5081572;28;20272;-90
2023/12/30 03:10:30;;;;;;;2.77;1.30;;;14.90;99.90;;;;;;5076065;28;20270;-90
2023/12/30 03:13:00;;;;;;;2.43;1.10;;;15.00;99.90;;;;;;5085119;28;20170;-90
2023/12/30 03:15:28;;;;;;;3.63;1.10;;;14.90;99.90;;;;;;5055783;28;20180;-90
2023/12/30 03:17:54;;;;;;;2.83;1.23;;;14.90;99.90;;;;;;5071306;28;20561;-90
2023/12/30 03:20:23;;;;;;;2.90;1.17;;;14.90;99.90;;;;;;5076136;28;20189;-90
2023/12/30 03:22:52;;;;;;;2.53;1.10;;;14.90;99.90;;;;;;5064607;28;20296;-90
2023/12/30 03:25:20;;;;;;;2.53;1.10;;;14.90;99.90;;;;;;5076643;28;20182;-89
2023/12/30 03:27:46;;;;;;;2.57;1.10;;;14.90;99.90;;;;;;5065071;28;20167;-89
2023/12/30 03:30:15;;;;;;;2.70;1.10;;;14.90;99.90;;;;;;5075796;28;20171;-89
2023/12/30 03:32:41;;;;;;;3.63;1.30;;;15.00;99.90;;;;;;5066860;28;20495;-90
2023/12/30 03:35:10;;;;;;;2.17;1.10;;;14.90;99.90;;;;;;5072399;28;20609;-89
2023/12/30 03:37:42;;;;;;;4.10;1.33;;;14.90;99.90;;;;;;5069549;28;20213;-90
2023/12/30 03:40:14;;;;;;;2.47;1.13;;;14.90;99.90;;;;;;5072143;28;20438;-89
2023/12/30 03:42:42;;;;;;;3.03;1.40;;;14.90;99.90;;;;;;5069099;28;20206;-90
2023/12/30 03:45:09;;;;;;;3.57;1.30;;;15.00;99.90;;;;;;5070783;28;20239;-90
2023/12/30 03:47:37;;;;;;;1.53;1.00;;;15.00;99.90;;;;;;5070599;28;20165;-89
2023/12/30 03:50:07;;;;;;;2.43;1.03;;;14.90;99.90;;;;;;5068023;28;20594;-90
2023/12/30 03:52:35;;;;;;;2.20;1.10;;;14.90;99.90;;;;;;5072429;28;20289;-90
2023/12/30 03:55:07;;;;;;;2.60;1.10;;;15.00;99.90;;;;;;5068517;28;20179;-90
2023/12/30 03:57:33;;;;;;;2.27;1.10;;;15.00;99.90;;;;;;5079305;28;20474;-90
2023/12/30 04:00:02;;;;;;;4.37;1.30;;;15.00;99.90;;;;;;5065768;28;20549;-90
2023/12/30 04:02:28;;;;;;;2.13;1.07;;;15.00;99.90;;;;;;5074282;28;20216;-90
2023/12/30 04:04:57;;;;;;;2.10;0.90;;;15.00;99.90;;;;;;5068423;28;20177;-90
2023/12/30 04:07:25;;;;;;;2.07;1.10;;;15.00;99.90;;;;;;5057953;28;20169;-90
2023/12/30 04:09:54;;;;;;;2.43;1.10;;;15.00;99.90;;;;;;5065037;28;20328;-90
2023/12/30 04:12:20;;;;;;;4.23;1.13;;;15.00;99.90;;;;;;5060925;28;20175;-90
2023/12/30 04:14:49;;;;;;;1.73;0.87;;;15.00;99.90;;;;;;5067482;28;20179;-90
2023/12/30 04:17:15;;;;;;;2.50;1.13;;;15.00;99.90;;;;;;5080497;28;20180;-90
2023/12/30 04:19:43;;;;;;;3.40;1.20;;;15.00;99.90;;;;;;5067091;28;20232;-90
2023/12/30 04:22:09;;;;;;;2.03;1.20;;;15.00;99.90;;;;;;5059937;28;20488;-90
2023/12/30 04:24:35;;;;;;;2.70;1.00;;;15.00;99.90;;;;;;5071294;28;20562;-90
2023/12/30 04:27:04;;;;;;;1.77;1.03;;;15.10;99.90;;;;;;5061948;28;20469;-90
2023/12/30 04:29:29;;;;;;;2.47;1.10;;;15.10;99.90;;;;;;5065417;28;20177;-89
2023/12/30 04:31:58;;;;;;;1.60;0.90;;;15.10;99.90;;;;;;5076763;28;20186;-90
2023/12/30 04:34:27;;;;;;;2.40;1.20;;;15.10;99.90;;;;;;5073407;28;20177;-90
2023/12/30 04:36:53;;;;;;;2.07;1.03;;;15.10;99.90;;;;;;5075706;28;20203;-90
2023/12/30 04:39:21;;;;;;;4.03;1.10;;;15.10;99.90;;;;;;5074907;28;20316;-90
2023/12/30 04:41:50;;;;;;;2.00;1.00;;;15.20;99.90;;;;;;5071407;28;20213;-90
2023/12/30 04:44:22;;;;;;;2.03;1.00;;;15.20;99.90;;;;;;5074575;28;20560;-90
2023/12/30 04:46:51;;;;;;;2.07;1.00;;;15.20;99.90;;;;;;5068059;28;20177;-89
2023/12/30 04:49:19;;;;;;;1.83;1.03;;;15.20;99.90;;;;;;5061189;28;20179;-89
2023/12/30 04:51:45;;;;;;;1.60;1.10;;;15.20;99.90;;;;;;5070209;28;20198;-90
2023/12/30 04:54:14;;;;;;;2.23;1.00;;;15.20;99.90;;;;;;5061542;28;20175;-90
2023/12/30 04:56:42;;;;;;;3.53;1.30;;;15.20;99.90;;;;;;5071744;28;20439;-90
2023/12/30 04:59:09;;;;;;;1.10;0.80;;;15.20;99.90;;;;;;5061652;28;20179;-90
2023/12/30 05:01:36;;;;;;;2.67;1.17;;;15.20;99.90;;;;;;5085343;28;20192;-90
2023/12/30 05:04:02;;;;;;;1.37;0.90;;;15.20;99.90;;;;;;5060430;28;20176;-90
2023/12/30 05:06:29;;;;;;;2.93;1.30;;;15.20;99.90;;;;;;5071500;28;20172;-91
2023/12/30 05:08:56;;;;;;;2.60;1.10;;;15.20;99.90;;;;;;5059848;28;20171;-90
2023/12/30 05:11:25;;;;;;;2.47;1.03;;;15.20;99.90;;;;;;5072724;28;20184;-90
2023/12/30 05:13:50;;;;;;;1.50;0.93;;;15.20;99.90;;;;;;5059652;28;20167;-90
2023/12/30 05:16:19;;;;;;;2.80;1.20;;;15.20;99.90;;;;;;5081731;28;20187;-90
2023/12/30 05:18:45;;;;;;;1.70;0.80;;;15.20;99.90;;;;;;5077823;28;20174;-90
2023/12/30 05:21:22;;;;;;;1.80;0.97;;;15.20;99.90;;;;;;5069727;28;20211;-90
2023/12/30 05:23:48;;;;;;;2.57;1.10;;;15.20;99.90;;;;;;5094305;28;20183;-90
2023/12/30 05:26:17;;;;;;;2.03;0.93;;;15.20;99.90;;;;;;5072664;28;20169;-90
2023/12/30 05:28:46;;;;;;;2.07;1.10;;;15.20;99.90;;;;;;5062012;28;20219;-90
2023/12/30 05:31:11;;;;;;;2.23;1.00;;;15.20;99.90;;;;;;5063787;28;20174;-90
2023/12/30 05:33:37;;;;;;;2.83;1.27;;;15.20;99.90;;;;;;5064664;28;20176;-90
2023/12/30 05:36:03;;;;;;;2.67;1.10;;;15.10;99.90;;;;;;5060200;28;20181;-90
2023/12/30 05:38:29;;;;;;;2.93;1.07;;;15.10;99.90;;;;;;5067491;28;20511;-90
2023/12/30 05:40:58;;;;;;;1.87;1.13;;;15.10;99.90;;;;;;5059712;28;20168;-90
2023/12/30 05:43:27;;;;;;;2.73;1.20;;;15.10;99.90;;;;;;5070992;28;20168;-90
2023/12/30 05:45:52;;;;;;;2.43;1.10;;;15.10;99.90;;;;;;5059661;28;20185;-90
2023/12/30 05:48:21;;;;;;;2.07;1.00;;;15.10;99.90;;;;;;5070399;28;20187;-90
2023/12/30 05:50:46;;;;;;;1.37;1.13;;;15.10;99.90;;;;;;5059763;28;20168;-89
2023/12/30 05:53:12;;;;;;;2.23;1.10;;;15.10;99.90;;;;;;5068779;28;20475;-90
2023/12/30 05:55:41;;;;;;;1.90;1.00;;;15.10;99.90;;;;;;5057779;28;20553;-90
2023/12/30 05:58:10;;;;;;;2.73;1.10;;;15.10;99.90;;;;;;5070359;28;20239;-90
2023/12/30 06:00:35;;;;;;;1.93;1.00;;;15.10;99.90;;;;;;5058328;28;20278;-90
2023/12/30 06:03:04;;;;;;;1.60;1.00;;;15.10;99.90;;;;;;5069577;28;20415;-90
2023/12/30 06:05:33;;;;;;;1.90;1.00;;;15.00;99.90;;;;;;5074552;28;20260;-89
2023/12/30 06:08:01;;;;;;;2.30;1.00;;;15.00;99.90;;;;;;5068605;28;20176;-90
2023/12/30 06:10:27;;;;;;;1.57;0.97;;;15.10;99.90;;;;;;5059910;28;20200;-89
2023/12/30 06:12:52;;;;;;;2.07;1.30;;;15.20;99.90;;;;;;5059307;28;20285;-90
2023/12/30 06:15:21;;;;;;;1.43;0.90;;;15.20;99.90;;;;;;5074142;28;20245;-90
2023/12/30 06:17:49;;;;;;;3.80;1.03;;;15.30;99.90;;;;;;5071674;28;20249;-90
2023/12/30 06:20:17;;;;;;;2.33;0.90;;;15.40;99.90;;;;;;5071773;28;20185;-90
2023/12/30 06:22:46;;;;;;;2.33;1.20;;;15.60;99.90;;;;;;5090884;28;20202;-90
2023/12/30 06:25:13;;;;;;;2.03;0.80;;;15.70;99.80;;;;;;5070811;28;20178;-90
2023/12/30 06:27:42;;;;;;;1.87;1.00;;;15.90;99.30;;;;;;5092101;28;20261;-90
2023/12/30 06:30:11;;;;;;;2.80;1.10;;;16.00;98.90;;;;;;5066312;28;20346;-90
2023/12/30 06:32:36;;;;;;;3.17;1.10;;;16.10;98.50;;;;;;5058787;28;20167;-89
2023/12/30 06:35:03;;;;;;;1.40;0.90;;;16.20;98.30;;;;;;5067810;28;20237;-90
2023/12/30 06:37:32;;;;;;;1.97;1.00;;;16.20;98.30;;;;;;5058340;28;20432;-89
2023/12/30 06:40:00;;;;;;;1.97;1.13;;;16.30;98.10;;;;;;5062692;28;20187;-90
2023/12/30 06:42:26;;;;;;;1.17;0.83;;;16.30;97.80;;;;;;5094850;28;20196;-90
2023/12/30 06:44:55;;;;;;;2.87;1.20;;;16.30;97.80;;;;;;5065503;28;20167;-90
2023/12/30 06:47:24;;;;;;;2.27;1.10;;;16.20;97.90;;;;;;5078482;28;20179;-90
2023/12/30 06:49:53;;;;;;;1.00;0.90;;;16.10;98.10;;;;;;5064499;28;20172;-90
2023/12/30 06:52:19;;;;;;;3.47;1.30;;;16.00;98.40;;;;;;5076042;28;20305;-90
2023/12/30 06:54:51;;;;;;;2.07;1.00;;;15.90;98.50;;;;;;5061603;28;20194;-90
2023/12/30 06:57:19;;;;;;;1.97;0.97;;;15.80;98.60;;;;;;5092954;28;20204;-90
2023/12/30 06:59:47;;;;;;;2.77;1.10;;;15.80;98.80;;;;;;5063060;28;20179;-90
2023/12/30 07:02:13;;;;;;;3.23;1.10;;;15.70;98.90;;;;;;5073739;28;20214;-90
2023/12/30 07:04:42;;;;;;;1.77;0.93;;;15.70;99.00;;;;;;5069268;28;20540;-90
2023/12/30 07:07:08;;;;;;;2.73;1.20;;;15.60;99.10;;;;;;5059158;28;20571;-90
2023/12/30 07:09:34;;;;;;;2.53;1.20;;;15.60;99.10;;;;;;5063003;28;20170;-90
2023/12/30 07:12:03;;;;;;;2.43;1.10;;;15.60;99.10;;;;;;5062672;28;20186;-90
2023/12/30 07:14:34;;;;;;;2.10;1.07;;;15.60;99.10;;;;;;5060656;28;20422;-90
2023/12/30 07:17:00;;;;;;;1.57;1.10;;;15.60;99.20;;;;;;5061646;28;20180;-90
2023/12/30 07:19:32;;;;;;;2.40;1.23;;;15.50;99.30;;;;;;5058376;28;20171;-90
2023/12/30 07:22:01;;;;;;;2.60;1.20;;;15.50;99.40;;;;;;5064910;28;20203;-90
2023/12/30 07:24:30;;;;;;;2.47;1.10;;;15.50;99.50;;;;;;5056653;28;20229;-90
2023/12/30 07:26:55;;;;;;;3.37;1.20;;;15.40;99.60;;;;;;5065222;28;20272;-89
2023/12/30 07:29:24;;;;;;;3.53;1.23;;;15.30;99.70;;;;;;5056313;28;20270;-90
2023/12/30 07:31:53;;;;;;;2.70;1.30;;;15.30;99.90;;;;;;5057427;28;20207;-90
2023/12/30 07:34:21;;;;;;;1.97;1.00;;;15.20;99.90;;;;;;5072798;28;20172;-90
2023/12/30 07:36:51;;;;;;;2.23;1.10;;;15.00;99.90;;;;;;5071767;28;20253;-90
2023/12/30 07:39:20;;;;;;;1.20;1.07;;;15.10;99.90;;;;;;5074337;28;20233;-90
2023/12/30 07:41:47;;;;;;;3.03;1.07;;;15.10;99.90;;;;;;5060786;28;20254;-90
2023/12/30 07:44:16;;;;;;;1.27;1.07;;;15.30;99.90;;;;;;5072355;28;20500;-90
2023/12/30 07:46:41;;;;;;;2.30;1.23;;;15.50;99.90;;;;;;5075905;28;20200;-90
2023/12/30 07:49:10;;;;;;;1.50;1.00;;;15.70;99.20;;;;;;5075467;28;20199;-90
2023/12/30 07:51:36;;;;;;;1.90;0.97;;;16.00;98.60;;;;;;5079562;28;20189;-89
2023/12/30 07:54:05;;;;;;;2.37;1.10;;;16.20;97.90;;;;;;5074769;28;20179;-90
2023/12/30 07:56:30;;;;;;;2.87;1.07;;;16.50;97.30;;;;;;5065314;28;20168;-90
2023/12/30 07:58:59;;;;;;;2.43;1.20;;;16.60;96.70;;;;;;5070443;28;20247;-90
2023/12/30 08:01:28;;;;;;;2.90;1.10;;;16.80;96.20;;;;;;5065574;28;20500;-90
2023/12/30 08:03:56;;;;;;;1.27;0.90;;;16.70;96.00;;;;;;5068502;28;20194;-91
2023/12/30 08:06:25;;;;;;;4.23;1.10;;;16.60;96.30;;;;;;5066328;28;20209;-90
2023/12/30 08:08:54;;;;;;;1.27;0.93;;;16.50;96.40;;;;;;5066495;28;20254;-90
2023/12/30 08:11:20;;;;;;;2.10;0.93;;;16.40;96.70;;;;;;5066846;28;20198;-90
2023/12/30 08:13:48;;;;;;;2.20;1.07;;;16.30;96.90;;;;;;5061081;28;20494;-90
2023/12/30 08:16:18;;;;;;;1.97;1.10;;;16.20;97.00;;;;;;5070761;28;20163;-89
2023/12/30 08:18:48;;;;;;;1.90;1.10;;;16.20;97.20;;;;;;5063673;28;20166;-90
2023/12/30 08:21:17;;;;;;;2.00;1.20;;;16.10;97.20;;;;;;5071203;28;20166;-90
2023/12/30 08:23:46;;;;;;;3.70;1.40;;;16.10;97.40;;;;;;5063248;28;20435;-90
2023/12/30 08:26:14;;;;;;;1.83;1.17;;;16.10;97.40;;;;;;5054334;28;20193;-90
2023/12/30 08:28:45;;;;;;;2.13;1.00;;;16.10;97.40;;;;;;5064194;28;20165;-90
2023/12/30 08:31:14;;;;;;;3.33;1.20;;;16.00;97.40;;;;;;5037793;28;20178;-90
2023/12/30 08:33:40;;;;;;;1.80;1.10;;;16.00;97.50;;;;;;5058655;28;20574;-90
2023/12/30 08:36:07;;;;;;;1.73;1.00;;;16.00;97.60;;;;;;5053934;28;20170;-90
2023/12/30 08:38:35;;;;;;;2.70;1.20;;;15.90;97.70;;;;;;5061634;28;20168;-90
2023/12/30 08:41:02;;;;;;;3.07;1.30;;;15.90;97.80;;;;;;5073790;28;20215;-90
2023/12/30 08:43:30;;;;;;;1.87;1.17;;;15.80;98.00;;;;;;5060491;28;20561;-90
2023/12/30 08:45:56;;;;;;;2.37;1.30;;;15.70;98.10;;;;;;5073725;28;20238;-90
2023/12/30 08:48:23;;;;;;;3.03;1.30;;;15.70;98.30;;;;;;5061443;28;20184;-90
2023/12/30 08:50:51;;;;;;;2.20;1.00;;;15.60;98.60;;;;;;5073440;28;20183;-90
2023/12/30 08:53:24;;;;;;;1.97;1.10;;;15.50;98.90;;;;;;5064637;28;20191;-90
2023/12/30 08:55:52;;;;;;;2.73;1.20;;;15.30;99.10;;;;;;5070458;28;20186;-90
2023/12/30 08:58:18;;;;;;;2.13;1.20;;;15.30;99.40;;;;;;5069316;28;20170;-90
2023/12/30 09:00:44;;;;;;;2.47;0.90;;;15.20;99.60;;;;;;5059573;28;20187;-90
2023/12/30 09:03:13;;;;;;;1.40;0.90;;;15.20;99.70;;;;;;5076245;28;20473;-90
2023/12/30 09:05:43;;;;;;;2.73;1.20;;;15.20;99.70;;;;;;5067847;28;20289;-90
2023/12/30 09:08:09;;;;;;;2.47;1.20;;;15.20;99.70;;;;;;5071097;28;20182;-90
2023/12/30 09:10:44;;;;;;;1.13;0.90;;;15.30;99.60;;;;;;5066375;28;20209;-90
2023/12/30 09:13:10;;;;;;;1.90;1.03;;;15.30;99.50;;;;;;5073017;28;20178;-89
2023/12/30 09:15:39;;;;;;;1.20;0.90;;;15.40;99.40;;;;;;5064875;28;20458;-90
2023/12/30 09:18:05;;;;;;;2.20;1.00;;;15.40;99.30;;;;;;5072640;28;20273;-90
2023/12/30 09:20:30;;;;;;;2.30;1.20;;;15.50;99.20;;;;;;5067208;28;20246;-90
2023/12/30 09:22:56;;;;;;;1.47;0.90;;;15.50;99.20;;;;;;5056333;28;20205;-90
2023/12/30 09:25:24;;;;;;;3.33;1.23;;;15.50;99.20;;;;;;5081478;28;20162;-90
2023/12/30 09:27:50;;;;;;;1.67;1.03;;;15.50;99.10;;;;;;5074621;28;20575;-90
2023/12/30 09:30:15;;;;;;;2.70;1.30;;;15.50;99.10;;;;;;5062101;28;20198;-90
2023/12/30 09:32:44;;;;;;;1.53;1.10;;;15.50;99.10;;;;;;5074560;28;20465;-90
2023/12/30 09:35:12;;;;;;;1.67;0.97;;;15.50;99.10;;;;;;5068331;28;20634;-90
2023/12/30 09:37:38;;;;;;;2.23;1.10;;;15.40;99.20;;;;;;5053681;28;20442;-90
2023/12/30 09:40:04;;;;;;;1.90;1.10;;;15.40;99.20;;;;;;5064727;28;20571;-90
2023/12/30 09:42:30;;;;;;;2.60;1.00;;;15.40;99.30;;;;;;5053233;28;20210;-89
2023/12/30 09:45:00;;;;;;;1.57;0.93;;;15.30;99.40;;;;;;5061139;28;20567;-90
2023/12/30 09:47:28;;;;;;;1.43;0.80;;;15.30;99.70;;;;;;5053144;28;20616;-90
2023/12/30 09:49:55;;;;;;;1.63;1.00;;;15.30;99.70;;;;;;5059089;28;20172;-91
2023/12/30 09:52:24;;;;;;;1.00;0.80;;;15.20;99.80;;;;;;5059279;28;20506;-90
2023/12/30 09:54:52;;;;;;;3.23;1.40;;;15.20;99.90;;;;;;5058992;28;20207;-90
2023/12/30 09:57:21;;;;;;;2.07;1.10;;;15.10;99.90;;;;;;5062526;28;20272;-90
2023/12/30 09:59:54;;;;;;;1.63;0.90;;;15.10;99.90;;;;;;5073799;28;20210;-90
2023/12/30 10:02:23;;;;;;;1.40;1.03;;;15.00;99.90;;;;;;5063516;28;20242;-90
2023/12/30 10:04:53;;;;;;;2.13;1.00;;;15.00;99.90;;;;;;5056121;28;20180;-90
2023/12/30 10:07:19;;;;;;;2.27;1.00;;;15.00;99.90;;;;;;5064680;28;20345;-90
2023/12/30 10:09:50;;;;;;;2.10;1.17;;;15.00;99.90;;;;;;5055820;28;20565;-90
2023/12/30 10:12:18;;;;;;;2.10;1.17;;;15.00;99.90;;;;;;5067958;28;20179;-90
2023/12/30 10:14:45;;;;;;;2.17;1.10;;;15.00;99.90;;;;;;5056399;28;20178;-90
2023/12/30 10:17:14;;;;;;;1.60;0.90;;;15.10;99.90;;;;;;5064584;28;20188;-90
2023/12/30 10:19:43;;;;;;;2.60;1.00;;;15.00;99.90;;;;;;5051539;28;20177;-90
2023/12/30 10:22:09;;;;;;;2.13;1.10;;;15.00;99.90;;;;;;5059630;28;20191;-89
2023/12/30 10:24:35;;;;;;;2.97;0.90;;;15.10;99.90;;;;;;5071269;28;20180;-89
2023/12/30 10:27:08;;;;;;;1.53;1.10;;;15.10;99.90;;;;;;5077473;28;20177;-90
2023/12/30 10:29:34;;;;;;;4.97;1.23;;;15.20;99.90;;;;;;5072443;28;20216;-90
2023/12/30 10:32:04;;;;;;;2.10;1.20;;;15.20;99.90;;;;;;5068170;28;20173;-90
2023/12/30 10:34:34;;;;;;;2.63;1.40;;;15.30;99.90;;;;;;5072201;28;20174;-90
2023/12/30 10:37:03;;;;;;;2.00;1.20;;;15.30;99.90;;;;;;5065084;28;20213;-90
2023/12/30 10:39:34;;;;;;;3.40;1.23;;;15.30;99.90;;;;;;5054783;28;20172;-90
2023/12/30 10:42:04;;;;;;;3.07;1.20;;;15.40;99.90;;;;;;5061791;28;20281;-90
2023/12/30 10:44:33;;;;;;;2.90;1.60;;;15.30;99.90;;;;;;5053323;28;20178;-90
2023/12/30 10:47:03;;;;;;;2.90;1.27;;;15.30;99.90;;;;;;5059999;28;20171;-90
2023/12/30 10:49:31;;;;;;;2.60;1.30;;;15.30;99.90;;;;;;5054660;28;20180;-90
2023/12/30 10:52:09;;;;;;;4.37;1.40;;;15.30;99.90;;;;;;5076325;28;20200;-90
2023/12/30 10:54:40;;;;;;;5.60;1.60;;;15.30;99.90;;;;;;5054785;28;20171;-90
2023/12/30 10:57:14;;;;;;;3.93;1.50;;;15.30;99.90;;;;;;5058778;28;20175;-90
2023/12/30 10:59:46;;;;;;;3.23;1.43;;;15.30;99.90;;;;;;5056463;28;20176;-90
2023/12/30 11:02:12;;;;;;;3.07;1.40;;;15.20;99.90;;;;;;5056894;28;20232;-90
2023/12/30 11:04:41;;;;;;;3.83;1.50;;;15.20;99.90;;;;;;5076483;28;20509;-90
2023/12/30 11:07:15;;;;;;;4.73;1.70;;;15.20;99.90;;;;;;5057677;28;20172;-90
2023/12/30 11:09:45;;;;;;;5.13;1.43;;;15.20;99.90;;;;;;5060879;28;20183;-90
2023/12/30 11:12:16;;;;;;;3.50;1.60;;;15.10;99.90;;;;;;5055735;28;20172;-92
2023/12/30 11:14:48;;;;;;;3.07;1.60;;;15.10;99.90;;;;;;5071748;28;20185;-91
2023/12/30 11:17:33;;;;;;;3.70;1.63;;;15.00;99.90;;;;;;5054370;28;20267;-90
2023/12/30 11:20:24;;;;;;;6.10;1.93;;;15.00;99.90;;;;;;5057793;28;20290;-91
2023/12/30 11:22:54;;;;;;;4.80;1.80;;;15.10;99.90;;;;;;5046536;28;20209;-91
2023/12/30 11:25:19;;;;;;;3.80;1.60;;;15.10;99.90;;;;;;5056682;28;20183;-91
2023/12/30 11:27:53;;;;;;;4.00;1.73;;;15.10;99.90;;;;;;5053673;28;20627;-90
2023/12/30 11:30:25;;;;;;;2.40;1.63;;;15.10;99.90;;;;;;5057616;28;20217;-91
2023/12/30 11:32:54;;;;;;;5.17;2.20;;;15.10;99.90;;;;;;5071391;28;20190;-91
2023/12/30 11:35:23;;;;;;;5.20;1.70;;;15.10;99.90;;;;;;5070361;28;20174;-90
2023/12/30 11:37:53;;;;;;;3.70;1.90;;;15.20;99.90;;;;;;5068648;28;20211;-90
2023/12/30 11:40:28;;;;;;;3.47;1.57;;;15.20;99.90;;;;;;5048092;28;20175;-90
2023/12/30 11:42:56;;;;;;;4.30;1.87;;;15.20;99.90;;;;;;5069210;28;20210;-90
2023/12/30 11:45:25;;;;;;;4.33;1.80;;;15.20;99.90;;;;;;5060405;28;20176;-90
2023/12/30 11:47:53;;;;;;;4.23;1.60;;;15.30;99.90;;;;;;5068809;28;20280;-90
2023/12/30 11:50:21;;;;;;;3.57;1.97;;;15.30;99.90;;;;;;5057480;28;20373;-90
2023/12/30 11:52:47;;;;;;;5.30;1.90;;;15.30;99.90;;;;;;5066506;28;20445;-90
2023/12/30 11:55:17;;;;;;;4.43;1.60;;;15.30;99.90;;;;;;5055318;28;20170;-90
2023/12/30 11:57:46;;;;;;;4.77;1.67;;;15.30;99.90;;;;;;5068219;28;20179;-90
2023/12/30 12:00:18;;;;;;;3.43;1.70;;;15.20;99.90;;;;;;5054424;28;20274;-91
2023/12/30 12:02:46;;;;;;;4.67;1.80;;;15.20;99.90;;;;;;5066338;28;20515;-91
2023/12/30 12:05:15;;;;;;;5.47;1.80;;;15.20;99.90;;;;;;5074057;28;20171;-91
2023/12/30 12:07:43;;;;;;;6.13;1.80;;;15.20;99.90;;;;;;5071027;28;20183;-91
2023/12/30 12:10:12;;;;;;;4.30;1.63;;;15.20;99.90;;;;;;5057374;28;20527;-90
2023/12/30 12:12:48;;;;;;;8.37;1.80;;;15.20;99.90;;;;;;5069304;28;20525;-90
2023/12/30 12:15:17;;;;;;;5.57;2.10;;;15.20;99.90;;;;;;5058677;28;20190;-90
2023/12/30 12:17:49;;;;;;;3.80;1.70;;;15.20;99.90;;;;;;5085739;28;20288;-90
2023/12/30 12:20:14;;;;;;;3.93;1.80;;;15.10;99.90;;;;;;5059014;28;20175;-90
2023/12/30 12:22:46;;;;;;;4.80;1.77;;;15.10;99.90;;;;;;5066174;28;20258;-91
2023/12/30 12:25:11;;;;;;;4.07;1.70;;;15.10;99.90;;;;;;5060797;28;20401;-91
2023/12/30 12:27:40;;;;;;;3.43;1.70;;;15.10;99.90;;;;;;5063693;28;20185;-91
2023/12/30 12:30:10;;;;;;;5.00;1.87;;;15.10;99.90;;;;;;5061131;28;20323;-91
2023/12/30 12:32:38;;;;;;;5.77;1.80;;;15.10;99.90;;;;;;5063934;28;20385;-91
2023/12/30 12:35:07;;;;;;;4.33;1.80;;;15.10;99.90;;;;;;5064626;28;20176;-90
2023/12/30 12:37:33;;;;;;;5.63;1.83;;;15.10;99.90;;;;;;5062639;28;20271;-91
2023/12/30 12:40:04;;;;;;;4.67;1.60;;;15.10;99.90;;;;;;5065872;28;20437;-90
2023/12/30 12:42:32;;;;;;;3.67;1.60;;;15.10;99.90;;;;;;5080016;28;20302;-91
2023/12/30 12:44:58;;;;;;;4.60;1.60;;;15.10;99.90;;;;;;5071015;28;20583;-90
2023/12/30 12:47:24;;;;;;;4.97;2.00;;;15.20;99.90;;;;;;5060307;28;20271;-91
2023/12/30 12:49:53;;;;;;;5.13;1.90;;;15.20;99.90;;;;;;5089048;28;20170;-91
2023/12/30 12:52:19;;;;;;;4.03;1.57;;;15.20;99.90;;;;;;5059499;28;20228;-90
2023/12/30 12:54:47;;;;;;;6.03;1.90;;;15.20;99.90;;;;;;5070766;28;20466;-91